Maersk Lima — VRKB9 — position and weather

sailwx.info

Track history (hours):
 
Tides and Currents Weather Stations Pressure Air Temp Water Temp Dewpoint Dewpoint Depression Visibility Wind Speed Wind Dir Waves Ship Positions

Maersk Lima

Last reported at 2018-Jun-24 07:01 UTC. Time now 2018-Jun-24 07:26 UTC.
Position N 50°44' E 000°49'.

Length 300 m; draft 8.6 m.

Type: Cargo ship. MMSI: 477423600.

Date/timePositionNaut miles runAvg speedWind from/ knotsBaromVisibWave heightAir tempDewpointWater temp
2018-Jun-24 07:01N 50°44' E 000°49'510.2
2018-Jun-24 06:31N 50°47' E 000°55'510.3
2018-Jun-24 06:00N 50°50' E 001°02'511.0
2018-Jun-24 05:31N 50°53' E 001°09'611.6
2018-Jun-24 05:00N 50°57' E 001°16'612.3
2018-Jun-24 04:31N 51°02' E 001°23'713.1
2018-Jun-24 04:01N 51°05' E 001°31'712.9
2018-Jun-24 03:30N 51°10' E 001°39'612.1
2018-Jun-24 03:00N 51°14' E 001°46'611.6
2018-Jun-24 02:31N 51°19' E 001°49'511.0
2018-Jun-24 02:01N 51°25' E 001°51'510.0
2018-Jun-24 01:31N 51°30' E 001°52'5 9.9
2018-Jun-24 01:00N 51°34' E 001°48'5 9.6
2018-Jun-24 00:30N 51°39' E 001°46'5 9.2
2018-Jun-24 00:01N 51°43' E 001°44'5 9.2
2018-Jun-23 23:31N 51°48' E 001°44'4 8.6
2018-Jun-23 23:00N 51°51' E 001°40'4 8.5
2018-Jun-23 22:31N 51°53' E 001°33'611.3
2018-Jun-23 22:00N 51°56' E 001°26'5 9.9
2018-Jun-23 21:31N 51°57' E 001°18'0 0.6
2018-Jun-23 21:00N 51°58' E 001°18'0 0.0
2018-Jun-23 20:30N 51°58' E 001°18'0 0.0
2018-Jun-23 20:00N 51°58' E 001°18'0 0.0
2018-Jun-23 19:30N 51°58' E 001°18'0 0.0
2018-Jun-23 19:00N 51°58' E 001°18'0 0.0
2018-Jun-23 18:30N 51°58' E 001°18'0 0.0
2018-Jun-23 18:00N 51°58' E 001°18'0 0.0
2018-Jun-23 17:30N 51°58' E 001°18'0 0.0
2018-Jun-23 17:00N 51°58' E 001°18'0 0.0
2018-Jun-23 16:30N 51°58' E 001°18'0 0.0
2018-Jun-23 16:00N 51°58' E 001°18'0 0.0
2018-Jun-23 15:30N 51°58' E 001°18'0 0.0
2018-Jun-23 15:00N 51°58' E 001°18'0 0.0
2018-Jun-23 14:30N 51°58' E 001°18'0 0.0
2018-Jun-23 14:00N 51°58' E 001°18'0 0.0
2018-Jun-23 13:30N 51°58' E 001°18'0 0.0
2018-Jun-23 13:00N 51°58' E 001°18'0 0.0
2018-Jun-23 12:30N 51°58' E 001°18'0 0.0
2018-Jun-23 12:00N 51°58' E 001°18'0 0.0
2018-Jun-23 11:30N 51°58' E 001°18'0 0.0
2018-Jun-23 11:00N 51°58' E 001°18'0 0.0
2018-Jun-23 10:30N 51°58' E 001°18'0 0.0
2018-Jun-23 10:00N 51°58' E 001°18'0 0.0
2018-Jun-23 09:30N 51°58' E 001°18'0 0.0
2018-Jun-23 09:00N 51°58' E 001°18'0 0.3
2018-Jun-23 08:30N 51°57' E 001°18'2 3.8
2018-Jun-23 08:00N 51°56' E 001°19'713.8
2018-Jun-23 07:30N 51°57' E 001°30'713.3
2018-Jun-23 07:00N 51°52' E 001°37'2 4.4
2018-Jun-23 06:30N 51°53' E 001°39'0 0.1
2018-Jun-23 06:00N 51°53' E 001°39'0 0.0
2018-Jun-23 05:30N 51°53' E 001°39'0 0.0
2018-Jun-23 05:00N 51°53' E 001°39'0 0.0
2018-Jun-23 04:30N 51°53' E 001°39'0 0.1
2018-Jun-23 04:00N 51°53' E 001°39'0 0.1
2018-Jun-23 03:30N 51°53' E 001°39'0 0.1
2018-Jun-23 03:00N 51°53' E 001°39'0 0.2
2018-Jun-23 02:30N 51°53' E 001°40'0 0.2
2018-Jun-23 02:00N 51°54' E 001°40'0 0.2
2018-Jun-23 01:30N 51°54' E 001°40'0 0.1
2018-Jun-23 01:00N 51°54' E 001°40'0 0.0
2018-Jun-23 00:30N 51°54' E 001°40'0 0.1
2018-Jun-23 00:00N 51°54' E 001°40'0 0.0
2018-Jun-22 23:30N 51°54' E 001°40'0 0.0
2018-Jun-22 23:00N 51°54' E 001°39'0 0.0
2018-Jun-22 22:30N 51°54' E 001°39'0 0.1
2018-Jun-22 22:00N 51°54' E 001°39'0 0.0
2018-Jun-22 21:30N 51°54' E 001°39'0 0.0
2018-Jun-22 21:00N 51°54' E 001°39'0 0.4
2018-Jun-22 20:30N 51°54' E 001°39'0 0.2
2018-Jun-22 20:00N 51°53' E 001°39'0 0.1
2018-Jun-22 19:30N 51°53' E 001°39'0 0.0
2018-Jun-22 19:00N 51°53' E 001°39'0 0.0
2018-Jun-22 18:30N 51°53' E 001°39'0 0.0
2018-Jun-22 18:00N 51°53' E 001°39'0 0.0
2018-Jun-22 17:30N 51°53' E 001°39'0 0.0
2018-Jun-22 17:00N 51°53' E 001°39'0 0.0
2018-Jun-22 16:30N 51°53' E 001°39'0 0.0
2018-Jun-22 16:00N 51°53' E 001°39'0 0.0
2018-Jun-22 15:30N 51°53' E 001°39'0 0.0
2018-Jun-22 15:00N 51°53' E 001°39'0 0.0
2018-Jun-22 14:30N 51°53' E 001°39'0 0.0
2018-Jun-22 14:00N 51°53' E 001°39'0 0.0
2018-Jun-22 13:30N 51°53' E 001°39'0 0.0
2018-Jun-22 13:00N 51°53' E 001°39'0 0.0
2018-Jun-22 12:30N 51°53' E 001°39'0 0.7
2018-Jun-22 12:00N 51°54' E 001°40'1 1.6
2018-Jun-22 11:30N 51°53' E 001°41'4 7.8
2018-Jun-22 11:01N 51°51' E 001°46'5 9.2
2018-Jun-22 10:31N 51°50' E 001°53'5 9.6
2018-Jun-22 10:01N 51°52' E 002°00'5 9.7
2018-Jun-22 09:30N 51°54' E 002°08'5 9.6
2018-Jun-22 09:01N 51°56' E 002°15'5 9.6
2018-Jun-22 08:31N 51°57' E 002°22'5 9.5
2018-Jun-22 08:00N 51°59' E 002°29'5 9.5
2018-Jun-22 07:30N 52°01' E 002°37'6 9.2
2018-Jun-22 06:53N 52°02' E 002°45'1210.7
2018-Jun-22 05:48N 52°11' E 002°58'616.3
2018-Jun-22 05:26N 52°16' E 003°03'817.1
2018-Jun-22 05:00N 52°22' E 003°11'917.3
2018-Jun-22 04:30N 52°29' E 003°20'917.4
2018-Jun-22 04:00N 52°36' E 003°28'917.0
2018-Jun-22 03:28N 52°43' E 003°38'816.6
2018-Jun-22 03:00N 52°49' E 003°46'816.2
2018-Jun-22 02:30N 52°55' E 003°55'714.9
2018-Jun-22 02:00N 52°59' E 004°05'714.7
2018-Jun-22 01:30N 53°04' E 004°14'714.1
2018-Jun-22 01:00N 53°08' E 004°23'815.0
2018-Jun-22 00:30N 53°15' E 004°29'815.2
2018-Jun-22 00:00N 53°22' E 004°34'714.1
2018-Jun-21 23:30N 53°28' E 004°38'3 6.3
2018-Jun-21 23:00N 53°30' E 004°43'2 4.7
2018-Jun-21 22:30N 53°30' E 004°46'2 5.0
2018-Jun-21 22:00N 53°31' E 004°51'3 5.2
2018-Jun-21 21:30N 53°32' E 004°54'3 6.3
2018-Jun-21 21:00N 53°34' E 004°59'3 6.6
2018-Jun-21 20:30N 53°34' E 005°04'3 6.9
2018-Jun-21 20:00N 53°35' E 005°10'4 7.0
2018-Jun-21 19:30N 53°37' E 005°15'4 7.3
2018-Jun-21 19:00N 53°38' E 005°21'4 7.2
2018-Jun-21 18:30N 53°39' E 005°27'4 7.0
2018-Jun-21 18:00N 53°40' E 005°33'4 7.0
2018-Jun-21 17:30N 53°41' E 005°38'4 7.1
2018-Jun-21 17:00N 53°42' E 005°44'4 7.2
2018-Jun-21 16:30N 53°44' E 005°50'4 7.3
2018-Jun-21 16:00N 53°45' E 005°55'4 7.0
2018-Jun-21 15:30N 53°46' E 006°01'3 6.9
2018-Jun-21 15:00N 53°47' E 006°07'3 6.6
2018-Jun-21 14:30N 53°48' E 006°12'47 7.5
2018-Jun-21 08:14N 54°00' E 007°29'2 9.2
2018-Jun-21 07:58N 54°01' E 007°34'5 9.5
2018-Jun-21 07:29N 54°01' E 007°41'5 9.8
2018-Jun-21 07:00N 54°02' E 007°49'5 9.4
2018-Jun-21 06:30N 54°02' E 007°57'5 9.5
2018-Jun-21 06:00N 54°01' E 008°05'3 6.9
2018-Jun-21 05:30N 54°02' E 008°11'0 0.1
2018-Jun-21 04:57N 54°02' E 008°11'0 0.0
2018-Jun-21 04:27N 54°02' E 008°11'0 0.0
2018-Jun-21 04:00N 54°02' E 008°11'0 0.0
2018-Jun-21 03:30N 54°02' E 008°11'0 0.0
2018-Jun-21 03:00N 54°02' E 008°11'0 0.0
2018-Jun-21 02:30N 54°02' E 008°11'0 0.0
2018-Jun-21 02:00N 54°02' E 008°11'0 0.0
2018-Jun-21 01:30N 54°02' E 008°11'0 0.0
2018-Jun-20 23:54N 54°02' E 008°11'0 0.0
2018-Jun-20 23:24N 54°02' E 008°11'0 0.0
2018-Jun-20 22:57N 54°02' E 008°11'0 0.1
2018-Jun-20 22:30N 54°02' E 008°11'0 0.1
2018-Jun-20 22:00N 54°02' E 008°11'0 0.1
2018-Jun-20 21:30N 54°02' E 008°11'0 0.1
2018-Jun-20 21:00N 54°02' E 008°11'0 0.1
2018-Jun-20 20:30N 54°02' E 008°11'0 0.1
2018-Jun-20 20:00N 54°02' E 008°11'0 0.1
2018-Jun-20 19:30N 54°02' E 008°11'0 0.1
2018-Jun-20 18:54N 54°02' E 008°11'0 0.1
2018-Jun-20 18:30N 54°02' E 008°11'0 0.1
2018-Jun-20 17:54N 54°02' E 008°11'0 0.0
2018-Jun-20 17:30N 54°02' E 008°11'0 0.0
2018-Jun-20 16:57N 54°02' E 008°11'0 0.0
2018-Jun-20 16:30N 54°02' E 008°11'0 0.0
2018-Jun-20 16:00N 54°02' E 008°11'0 0.1
2018-Jun-20 15:27N 54°02' E 008°11'0 0.0
2018-Jun-20 15:00N 54°02' E 008°11'0 0.0
2018-Jun-20 14:24N 54°02' E 008°11'0 0.0
2018-Jun-20 14:00N 54°02' E 008°11'0 0.0
2018-Jun-20 13:30N 54°02' E 008°11'0 0.0
2018-Jun-20 12:57N 54°02' E 008°11'0 0.1
2018-Jun-20 12:27N 54°02' E 008°11'0 0.0
2018-Jun-20 12:00N 54°02' E 008°11'0 0.0
2018-Jun-20 11:30N 54°02' E 008°11'0 0.0
2018-Jun-20 11:00N 54°02' E 008°11'0 0.1
2018-Jun-20 10:27N 54°02' E 008°11'0 0.1
2018-Jun-20 10:00N 54°02' E 008°11'0 0.1
2018-Jun-20 09:30N 54°02' E 008°11'0 0.1
2018-Jun-20 09:00N 54°02' E 008°11'0 0.0
2018-Jun-20 08:24N 54°02' E 008°11'0 0.1
2018-Jun-20 08:00N 54°02' E 008°11'0 0.0
2018-Jun-20 07:30N 54°02' E 008°11'0 0.0
2018-Jun-20 06:57N 54°02' E 008°11'0 0.1
2018-Jun-20 06:30N 54°02' E 008°11'0 0.1
2018-Jun-20 06:00N 54°02' E 008°11'0 0.1
2018-Jun-20 05:30N 54°02' E 008°11'0 0.1
2018-Jun-20 05:00N 54°02' E 008°11'0 0.1
2018-Jun-20 04:30N 54°02' E 008°11'0 0.0
2018-Jun-20 04:00N 54°02' E 008°11'0 0.1
2018-Jun-20 03:27N 54°02' E 008°11'0 0.0
2018-Jun-20 03:00N 54°02' E 008°11'0 0.1
2018-Jun-20 02:30N 54°02' E 008°11'0 0.1
2018-Jun-20 02:00N 54°02' E 008°11'0 0.0
2018-Jun-20 01:30N 54°02' E 008°11'0 0.0
2018-Jun-20 01:00N 54°02' E 008°11'0 0.0
2018-Jun-20 00:30N 54°02' E 008°11'0 0.0
2018-Jun-20 00:00N 54°02' E 008°11'0 0.2
2018-Jun-19 23:30N 54°02' E 008°11'0 0.2
2018-Jun-19 23:00N 54°02' E 008°11'0 0.2
2018-Jun-19 22:30N 54°02' E 008°11'0 0.1
2018-Jun-19 22:00N 54°02' E 008°11'0 0.0
2018-Jun-19 21:30N 54°02' E 008°11'0 0.0
2018-Jun-19 21:00N 54°02' E 008°11'0 0.0
2018-Jun-19 20:30N 54°02' E 008°11'0 0.1
2018-Jun-19 20:00N 54°02' E 008°11'0 0.1
2018-Jun-19 19:30N 54°02' E 008°11'0 0.0
2018-Jun-19 19:00N 54°02' E 008°11'0 0.2
2018-Jun-19 17:48N 54°02' E 008°11'0 0.2
2018-Jun-19 17:24N 54°02' E 008°11'0 0.0
2018-Jun-19 16:51N 54°02' E 008°11'0 0.1
2018-Jun-19 16:30N 54°02' E 008°11'0 0.0
2018-Jun-19 15:57N 54°02' E 008°11'0 0.0
2018-Jun-19 15:27N 54°02' E 008°11'0 0.0
2018-Jun-19 14:57N 54°02' E 008°11'0 0.0
2018-Jun-19 14:27N 54°02' E 008°11'0 0.0
2018-Jun-19 14:00N 54°02' E 008°11'0 0.0
2018-Jun-19 13:27N 54°02' E 008°11'0 0.0
2018-Jun-19 13:00N 54°02' E 008°11'0 0.0
2018-Jun-19 12:24N 54°02' E 008°11'0 0.0
2018-Jun-19 11:57N 54°02' E 008°11'0 0.0
2018-Jun-19 11:30N 54°02' E 008°11'0 0.1
2018-Jun-19 11:00N 54°02' E 008°11'0 0.1
2018-Jun-19 10:24N 54°02' E 008°11'0 0.0
2018-Jun-19 09:54N 54°02' E 008°11'0 0.1
2018-Jun-19 09:30N 54°02' E 008°11'0 0.1
2018-Jun-19 09:00N 54°02' E 008°11'0 0.0
2018-Jun-19 08:30N 54°02' E 008°11'0 0.0
2018-Jun-19 08:00N 54°02' E 008°11'0 0.1
2018-Jun-19 07:30N 54°02' E 008°11'0 0.0
2018-Jun-19 07:00N 54°02' E 008°11'0 0.0
2018-Jun-19 06:30N 54°02' E 008°11'0 0.0
2018-Jun-19 06:00N 54°02' E 008°11'0 0.0
2018-Jun-19 05:30N 54°02' E 008°11'0 0.1
2018-Jun-19 05:00N 54°02' E 008°11'0 0.0
2018-Jun-19 04:30N 54°02' E 008°11'0 0.0
2018-Jun-19 04:00N 54°02' E 008°11'0 0.1
2018-Jun-19 03:30N 54°02' E 008°11'0 0.0
2018-Jun-19 03:00N 54°02' E 008°11'0 0.0
2018-Jun-19 02:27N 54°02' E 008°11'0 0.0
2018-Jun-19 02:00N 54°02' E 008°11'0 0.0
2018-Jun-19 01:30N 54°02' E 008°11'0 0.0
2018-Jun-19 01:00N 54°02' E 008°11'0 0.1
2018-Jun-19 00:24N 54°02' E 008°11'0 0.0
2018-Jun-19 00:00N 54°02' E 008°11'0 0.0
2018-Jun-18 23:30N 54°02' E 008°11'0 0.0
2018-Jun-18 23:00N 54°02' E 008°11'0 0.0
2018-Jun-18 22:30N 54°02' E 008°11'0 0.1
2018-Jun-18 22:00N 54°02' E 008°11'0 0.1
2018-Jun-18 21:30N 54°02' E 008°11'0 0.2
2018-Jun-18 21:00N 54°02' E 008°11'0 0.1
2018-Jun-18 20:30N 54°02' E 008°11'0 0.0
2018-Jun-18 20:00N 54°02' E 008°11'0 0.0
2018-Jun-18 19:30N 54°02' E 008°11'0 0.0
2018-Jun-18 18:54N 54°02' E 008°11'0 0.0
2018-Jun-18 18:30N 54°02' E 008°11'0 0.0
2018-Jun-18 18:00N 54°02' E 008°11'0 0.1
2018-Jun-18 17:30N 54°02' E 008°11'0 0.1
2018-Jun-18 17:00N 54°02' E 008°11'0 0.1
2018-Jun-18 16:30N 54°02' E 008°11'0 0.1
2018-Jun-18 16:00N 54°02' E 008°11'0 0.1
2018-Jun-18 15:15N 54°02' E 008°11'0 0.0
2018-Jun-18 14:57N 54°02' E 008°11'0 0.0
2018-Jun-18 14:30N 54°02' E 008°11'0 0.0
2018-Jun-18 14:00N 54°02' E 008°11'0 0.0
2018-Jun-18 13:30N 54°02' E 008°11'0 0.0
2018-Jun-18 12:42N 54°02' E 008°11'0 0.0
2018-Jun-18 12:30N 54°02' E 008°11'0 0.0
2018-Jun-18 12:00N 54°02' E 008°11'0 0.0
2018-Jun-18 11:24N 54°02' E 008°11'0 0.0
2018-Jun-18 11:00N 54°02' E 008°11'0 0.0
2018-Jun-18 10:30N 54°02' E 008°11'0 0.0
2018-Jun-18 10:00N 54°02' E 008°11'0 0.0
2018-Jun-18 09:30N 54°02' E 008°11'0 0.0
2018-Jun-18 09:00N 54°02' E 008°11'0 0.1
2018-Jun-18 08:30N 54°02' E 008°11'0 0.1
2018-Jun-18 08:00N 54°02' E 008°11'0 0.0
2018-Jun-18 07:27N 54°02' E 008°11'0 0.1
2018-Jun-18 07:00N 54°02' E 008°11'0 0.0
2018-Jun-18 06:18N 54°02' E 008°11'0 0.0
2018-Jun-18 06:00N 54°02' E 008°11'0 0.0
2018-Jun-18 05:30N 54°02' E 008°11'0 0.0
2018-Jun-18 05:00N 54°02' E 008°11'0 0.1
2018-Jun-18 04:30N 54°02' E 008°11'0 0.1
2018-Jun-18 04:00N 54°02' E 008°11'0 0.1
2018-Jun-18 03:30N 54°02' E 008°11'0 0.1
2018-Jun-18 03:00N 54°02' E 008°11'0 0.1
2018-Jun-18 02:30N 54°02' E 008°11'0 0.0
2018-Jun-18 01:57N 54°02' E 008°11'0 0.0
2018-Jun-18 01:24N 54°02' E 008°11'0 0.0
2018-Jun-18 01:00N 54°02' E 008°11'0 0.1
2018-Jun-18 00:30N 54°02' E 008°11'0 0.0
2018-Jun-18 00:00N 54°02' E 008°11'0 0.0
2018-Jun-17 23:30N 54°02' E 008°11'0 0.0
2018-Jun-17 23:00N 54°02' E 008°11'0 0.0
2018-Jun-17 22:24N 54°02' E 008°11'0 0.0
2018-Jun-17 22:00N 54°02' E 008°11'0 0.1
2018-Jun-17 21:30N 54°02' E 008°11'0 0.2
2018-Jun-17 21:00N 54°02' E 008°11'0 0.2
2018-Jun-17 20:30N 54°02' E 008°11'0 0.1
2018-Jun-17 20:00N 54°02' E 008°11'0 0.0
2018-Jun-17 19:30N 54°02' E 008°11'0 0.0
2018-Jun-17 19:00N 54°02' E 008°11'0 0.0
2018-Jun-17 18:30N 54°02' E 008°11'0 0.0
2018-Jun-17 18:00N 54°02' E 008°11'0 0.0
2018-Jun-17 17:27N 54°02' E 008°11'0 0.3
2018-Jun-17 17:00N 54°02' E 008°11'3 6.1
2018-Jun-17 16:30N 54°00' E 008°15'1020.0
2018-Jun-17 16:00N 53°58' E 008°32'816.2
2018-Jun-17 15:31N 53°53' E 008°42'612.4
2018-Jun-17 15:01N 53°50' E 008°52'510.5
2018-Jun-17 14:31N 53°51' E 009°00'612.3
2018-Jun-17 14:00N 53°53' E 009°11'4 8.9
2018-Jun-17 13:30N 53°52' E 009°18'612.1
2018-Jun-17 13:00N 53°47' E 009°24'510.3
2018-Jun-17 12:30N 53°43' E 009°29'611.5
2018-Jun-17 12:01N 53°37' E 009°33'612.6
2018-Jun-17 11:30N 53°34' E 009°42'510.3
2018-Jun-17 11:00N 53°33' E 009°50'3 6.7
2018-Jun-17 10:31N 53°32' E 009°55'0 0.2
2018-Jun-17 09:59N 53°32' E 009°55'0 0.0
2018-Jun-17 09:29N 53°32' E 009°56'0 0.0
2018-Jun-17 08:59N 53°32' E 009°56'0 0.0
2018-Jun-17 08:29N 53°32' E 009°56'0 0.0
2018-Jun-17 07:59N 53°32' E 009°56'0 0.0
2018-Jun-17 07:29N 53°32' E 009°56'0 0.0
2018-Jun-17 06:59N 53°32' E 009°56'0 0.0
2018-Jun-17 06:29N 53°32' E 009°56'0 0.0
2018-Jun-17 05:59N 53°32' E 009°56'0 0.0
2018-Jun-17 05:29N 53°32' E 009°56'0 0.0
2018-Jun-17 04:59N 53°32' E 009°56'0 0.0
2018-Jun-17 04:29N 53°32' E 009°56'0 0.0
2018-Jun-17 03:59N 53°32' E 009°56'0 0.0
2018-Jun-17 03:29N 53°32' E 009°56'0 0.0
2018-Jun-17 02:59N 53°32' E 009°56'0 0.0
2018-Jun-17 02:29N 53°32' E 009°56'0 0.0
2018-Jun-17 01:59N 53°32' E 009°56'0 0.0
2018-Jun-17 01:29N 53°32' E 009°56'0 0.0
2018-Jun-17 00:59N 53°32' E 009°56'0 0.0
2018-Jun-17 00:29N 53°32' E 009°56'0 0.0
2018-Jun-16 23:59N 53°32' E 009°56'0 0.0
2018-Jun-16 23:29N 53°32' E 009°56'0 0.0
2018-Jun-16 22:59N 53°32' E 009°56'0 0.0
2018-Jun-16 22:29N 53°32' E 009°56'0 0.0
2018-Jun-16 21:59N 53°32' E 009°56'0 0.0
2018-Jun-16 21:29N 53°32' E 009°56'0 0.0
2018-Jun-16 20:59N 53°32' E 009°56'0 0.0
2018-Jun-16 20:29N 53°32' E 009°56'0 0.0
2018-Jun-16 19:59N 53°32' E 009°56'0 0.0
2018-Jun-16 19:29N 53°32' E 009°56'0 0.0
2018-Jun-16 18:59N 53°32' E 009°56'0 0.0
2018-Jun-16 18:29N 53°32' E 009°56'0 0.0
2018-Jun-16 17:59N 53°32' E 009°56'0 0.0
2018-Jun-16 17:29N 53°32' E 009°56'0 0.0
2018-Jun-16 16:59N 53°32' E 009°56'0 0.0
2018-Jun-16 16:29N 53°32' E 009°56'0 0.6
2018-Jun-16 16:00N 53°32' E 009°55'1 3.0
2018-Jun-16 15:30N 53°33' E 009°53'4 8.7
2018-Jun-16 15:00N 53°34' E 009°46'510.4
2018-Jun-16 14:30N 53°35' E 009°37'611.3
2018-Jun-16 14:00N 53°39' E 009°31'611.9
2018-Jun-16 13:30N 53°44' E 009°26'611.9
2018-Jun-16 13:00N 53°50' E 009°21'612.2
2018-Jun-16 12:30N 53°53' E 009°13'611.3
2018-Jun-16 12:00N 53°52' E 009°03'612.9
2018-Jun-16 11:30N 53°50' E 008°53'611.9
2018-Jun-16 11:00N 53°52' E 008°43'612.6
2018-Jun-16 10:30N 53°57' E 008°37'713.5
2018-Jun-16 10:00N 53°59' E 008°25'816.0
2018-Jun-16 09:30N 53°60' E 008°12'510.9
2018-Jun-16 09:00N 53°59' E 008°03'510.0
2018-Jun-16 08:30N 53°58' E 007°54'510.4
2018-Jun-16 08:00N 53°57' E 007°46'714.2
2018-Jun-16 07:30N 53°55' E 007°34'814.8
2018-Jun-16 06:59N 53°53' E 007°22'814.6
2018-Jun-16 06:27N 53°51' E 007°09'5812.7
2018-Jun-16 01:56N 53°37' E 005°34'512.3
2018-Jun-16 01:30N 53°35' E 005°26'611.8
2018-Jun-16 01:00N 53°33' E 005°17'612.0
2018-Jun-16 00:30N 53°31' E 005°07'612.2
2018-Jun-16 00:00N 53°29' E 004°58'612.4
2018-Jun-15 23:30N 53°26' E 004°48'611.9
2018-Jun-15 23:00N 53°22' E 004°41'612.4
2018-Jun-15 22:30N 53°17' E 004°36'612.6
2018-Jun-15 22:00N 53°11' E 004°31'612.2
2018-Jun-15 21:30N 53°06' E 004°26'612.2
2018-Jun-15 21:00N 53°00' E 004°22'612.1
2018-Jun-15 20:30N 52°55' E 004°18'611.7
2018-Jun-15 20:00N 52°49' E 004°14'612.0
2018-Jun-15 19:30N 52°44' E 004°08'612.3
2018-Jun-15 19:00N 52°39' E 004°02'612.5
2018-Jun-15 18:30N 52°34' E 003°57'612.4
2018-Jun-15 18:00N 52°28' E 003°54'713.7
2018-Jun-15 17:30N 52°21' E 003°52'713.3
2018-Jun-15 17:00N 52°15' E 003°53'713.3
2018-Jun-15 16:30N 52°08' E 003°55'612.3
2018-Jun-15 16:00N 52°02' E 003°55'4 8.1
2018-Jun-15 15:30N 52°00' E 004°00'4 8.2
2018-Jun-15 15:01N 51°57' E 004°04'0 0.7
2018-Jun-15 14:29N 51°57' E 004°04'0 0.0
2018-Jun-15 13:59N 51°57' E 004°04'0 0.0
2018-Jun-15 13:29N 51°57' E 004°04'0 0.0
2018-Jun-15 12:59N 51°57' E 004°04'0 0.0
2018-Jun-15 12:29N 51°57' E 004°04'0 0.0
2018-Jun-15 11:59N 51°57' E 004°04'0 0.0
2018-Jun-15 11:29N 51°57' E 004°04'0 0.0
2018-Jun-15 10:59N 51°57' E 004°04'0 0.0
2018-Jun-15 10:29N 51°57' E 004°04'0 0.0
2018-Jun-15 09:59N 51°57' E 004°04'0 0.0
2018-Jun-15 09:29N 51°57' E 004°04'0 0.0
2018-Jun-15 08:59N 51°57' E 004°04'0 0.0
2018-Jun-15 08:29N 51°57' E 004°04'0 0.0
2018-Jun-15 07:59N 51°57' E 004°04'0 0.0
2018-Jun-15 07:29N 51°57' E 004°04'0 0.0
2018-Jun-15 06:59N 51°57' E 004°04'0 0.0
2018-Jun-15 06:29N 51°57' E 004°04'0 0.0
2018-Jun-15 05:59N 51°57' E 004°04'0 0.0
2018-Jun-15 05:29N 51°57' E 004°04'0 0.0
2018-Jun-15 04:59N 51°57' E 004°04'0 0.0
2018-Jun-15 04:29N 51°57' E 004°04'0 0.0
2018-Jun-15 03:59N 51°57' E 004°04'0 0.0
2018-Jun-15 03:29N 51°57' E 004°04'0 0.0
2018-Jun-15 02:59N 51°57' E 004°04'0 0.0
2018-Jun-15 02:29N 51°57' E 004°04'0 0.0
2018-Jun-15 01:59N 51°57' E 004°04'0 0.0
2018-Jun-15 01:29N 51°57' E 004°04'0 0.0
2018-Jun-15 00:59N 51°57' E 004°04'0 0.0
2018-Jun-15 00:29N 51°57' E 004°04'0 0.0
2018-Jun-14 23:59N 51°57' E 004°04'0 0.0
2018-Jun-14 23:29N 51°57' E 004°04'0 0.0
2018-Jun-14 22:59N 51°57' E 004°04'0 0.0
2018-Jun-14 22:29N 51°57' E 004°04'0 0.0
2018-Jun-14 21:59N 51°57' E 004°04'0 0.0
2018-Jun-14 21:29N 51°57' E 004°04'0 0.0
2018-Jun-14 20:59N 51°57' E 004°04'0 0.0
2018-Jun-14 20:29N 51°57' E 004°04'0 0.0
2018-Jun-14 19:59N 51°57' E 004°04'0 0.0
2018-Jun-14 19:29N 51°57' E 004°04'0 0.0
2018-Jun-14 18:59N 51°57' E 004°04'0 0.0
2018-Jun-14 18:29N 51°57' E 004°04'0 0.0
2018-Jun-14 17:59N 51°57' E 004°04'0 0.0
2018-Jun-14 17:29N 51°57' E 004°04'0 0.0
2018-Jun-14 16:59N 51°57' E 004°04'0 0.0
2018-Jun-14 16:29N 51°57' E 004°04'0 0.0
2018-Jun-14 15:59N 51°57' E 004°04'0 0.0
2018-Jun-14 15:29N 51°57' E 004°04'0 0.0
2018-Jun-14 14:59N 51°57' E 004°04'0 0.0
2018-Jun-14 14:29N 51°57' E 004°04'0 1.0
2018-Jun-14 14:01N 51°57' E 004°05'1 2.8
2018-Jun-14 13:31N 51°58' E 004°05'5 9.7
2018-Jun-14 13:00N 52°00' E 003°58'510.9
2018-Jun-14 12:30N 52°00' E 003°49'4 8.7
2018-Jun-14 12:01N 51°58' E 003°43'3 5.2
2018-Jun-14 11:31N 51°58' E 003°39'2 3.8
2018-Jun-14 11:00N 51°58' E 003°36'3 5.9
2018-Jun-14 10:30N 51°57' E 003°31'3 5.6
2018-Jun-14 10:00N 51°56' E 003°27'3 5.9
2018-Jun-14 09:31N 51°55' E 003°22'4 8.1
2018-Jun-14 09:00N 51°54' E 003°16'5 9.7
2018-Jun-14 08:30N 51°53' E 003°08'713.5
2018-Jun-14 08:00N 51°51' E 002°58'713.8
2018-Jun-14 07:30N 51°48' E 002°47'  
Track history (hours):
 
Tides and Currents Weather Stations Pressure Air Temp Water Temp Dewpoint Dewpoint Depression Visibility Wind Speed Wind Dir Waves Ship Positions

Maersk Lima

Last reported at 2018-Jun-24 07:01 UTC. Time now 2018-Jun-24 07:26 UTC.
Position N 50°44' E 000°49'.

Length 300 m; draft 8.6 m.

Type: Cargo ship. MMSI: 477423600.

Date/timePositionNaut miles runAvg speedWind from/ knotsBaromVisibWave heightAir tempDewpointWater temp
2018-Jun-24 07:01N 50°44' E 000°49'510.2
2018-Jun-24 06:31N 50°47' E 000°55'510.3
2018-Jun-24 06:00N 50°50' E 001°02'511.0
2018-Jun-24 05:31N 50°53' E 001°09'611.6
2018-Jun-24 05:00N 50°57' E 001°16'612.3
2018-Jun-24 04:31N 51°02' E 001°23'713.1
2018-Jun-24 04:01N 51°05' E 001°31'712.9
2018-Jun-24 03:30N 51°10' E 001°39'612.1
2018-Jun-24 03:00N 51°14' E 001°46'611.6
2018-Jun-24 02:31N 51°19' E 001°49'511.0
2018-Jun-24 02:01N 51°25' E 001°51'510.0
2018-Jun-24 01:31N 51°30' E 001°52'5 9.9
2018-Jun-24 01:00N 51°34' E 001°48'5 9.6
2018-Jun-24 00:30N 51°39' E 001°46'5 9.2
2018-Jun-24 00:01N 51°43' E 001°44'5 9.2
2018-Jun-23 23:31N 51°48' E 001°44'4 8.6
2018-Jun-23 23:00N 51°51' E 001°40'4 8.5
2018-Jun-23 22:31N 51°53' E 001°33'611.3
2018-Jun-23 22:00N 51°56' E 001°26'5 9.9
2018-Jun-23 21:31N 51°57' E 001°18'0 0.6
2018-Jun-23 21:00N 51°58' E 001°18'0 0.0
2018-Jun-23 20:30N 51°58' E 001°18'0 0.0
2018-Jun-23 20:00N 51°58' E 001°18'0 0.0
2018-Jun-23 19:30N 51°58' E 001°18'0 0.0
2018-Jun-23 19:00N 51°58' E 001°18'0 0.0
2018-Jun-23 18:30N 51°58' E 001°18'0 0.0
2018-Jun-23 18:00N 51°58' E 001°18'0 0.0
2018-Jun-23 17:30N 51°58' E 001°18'0 0.0
2018-Jun-23 17:00N 51°58' E 001°18'0 0.0
2018-Jun-23 16:30N 51°58' E 001°18'0 0.0
2018-Jun-23 16:00N 51°58' E 001°18'0 0.0
2018-Jun-23 15:30N 51°58' E 001°18'0 0.0
2018-Jun-23 15:00N 51°58' E 001°18'0 0.0
2018-Jun-23 14:30N 51°58' E 001°18'0 0.0
2018-Jun-23 14:00N 51°58' E 001°18'0 0.0
2018-Jun-23 13:30N 51°58' E 001°18'0 0.0
2018-Jun-23 13:00N 51°58' E 001°18'0 0.0
2018-Jun-23 12:30N 51°58' E 001°18'0 0.0
2018-Jun-23 12:00N 51°58' E 001°18'0 0.0
2018-Jun-23 11:30N 51°58' E 001°18'0 0.0
2018-Jun-23 11:00N 51°58' E 001°18'0 0.0
2018-Jun-23 10:30N 51°58' E 001°18'0 0.0
2018-Jun-23 10:00N 51°58' E 001°18'0 0.0
2018-Jun-23 09:30N 51°58' E 001°18'0 0.0
2018-Jun-23 09:00N 51°58' E 001°18'0 0.3
2018-Jun-23 08:30N 51°57' E 001°18'2 3.8
2018-Jun-23 08:00N 51°56' E 001°19'713.8
2018-Jun-23 07:30N 51°57' E 001°30'713.3
2018-Jun-23 07:00N 51°52' E 001°37'2 4.4
2018-Jun-23 06:30N 51°53' E 001°39'0 0.1
2018-Jun-23 06:00N 51°53' E 001°39'0 0.0
2018-Jun-23 05:30N 51°53' E 001°39'0 0.0
2018-Jun-23 05:00N 51°53' E 001°39'0 0.0
2018-Jun-23 04:30N 51°53' E 001°39'0 0.1
2018-Jun-23 04:00N 51°53' E 001°39'0 0.1
2018-Jun-23 03:30N 51°53' E 001°39'0 0.1
2018-Jun-23 03:00N 51°53' E 001°39'0 0.2
2018-Jun-23 02:30N 51°53' E 001°40'0 0.2
2018-Jun-23 02:00N 51°54' E 001°40'0 0.2
2018-Jun-23 01:30N 51°54' E 001°40'0 0.1
2018-Jun-23 01:00N 51°54' E 001°40'0 0.0
2018-Jun-23 00:30N 51°54' E 001°40'0 0.1
2018-Jun-23 00:00N 51°54' E 001°40'0 0.0
2018-Jun-22 23:30N 51°54' E 001°40'0 0.0
2018-Jun-22 23:00N 51°54' E 001°39'0 0.0
2018-Jun-22 22:30N 51°54' E 001°39'0 0.1
2018-Jun-22 22:00N 51°54' E 001°39'0 0.0
2018-Jun-22 21:30N 51°54' E 001°39'0 0.0
2018-Jun-22 21:00N 51°54' E 001°39'0 0.4
2018-Jun-22 20:30N 51°54' E 001°39'0 0.2
2018-Jun-22 20:00N 51°53' E 001°39'0 0.1
2018-Jun-22 19:30N 51°53' E 001°39'0 0.0
2018-Jun-22 19:00N 51°53' E 001°39'0 0.0
2018-Jun-22 18:30N 51°53' E 001°39'0 0.0
2018-Jun-22 18:00N 51°53' E 001°39'0 0.0
2018-Jun-22 17:30N 51°53' E 001°39'0 0.0
2018-Jun-22 17:00N 51°53' E 001°39'0 0.0
2018-Jun-22 16:30N 51°53' E 001°39'0 0.0
2018-Jun-22 16:00N 51°53' E 001°39'0 0.0
2018-Jun-22 15:30N 51°53' E 001°39'0 0.0
2018-Jun-22 15:00N 51°53' E 001°39'0 0.0
2018-Jun-22 14:30N 51°53' E 001°39'0 0.0
2018-Jun-22 14:00N 51°53' E 001°39'0 0.0
2018-Jun-22 13:30N 51°53' E 001°39'0 0.0
2018-Jun-22 13:00N 51°53' E 001°39'0 0.0
2018-Jun-22 12:30N 51°53' E 001°39'0 0.7
2018-Jun-22 12:00N 51°54' E 001°40'1 1.6
2018-Jun-22 11:30N 51°53' E 001°41'4 7.8
2018-Jun-22 11:01N 51°51' E 001°46'5 9.2
2018-Jun-22 10:31N 51°50' E 001°53'5 9.6
2018-Jun-22 10:01N 51°52' E 002°00'5 9.7
2018-Jun-22 09:30N 51°54' E 002°08'5 9.6
2018-Jun-22 09:01N 51°56' E 002°15'5 9.6
2018-Jun-22 08:31N 51°57' E 002°22'5 9.5
2018-Jun-22 08:00N 51°59' E 002°29'5 9.5
2018-Jun-22 07:30N 52°01' E 002°37'6 9.2
2018-Jun-22 06:53N 52°02' E 002°45'1210.7
2018-Jun-22 05:48N 52°11' E 002°58'616.3
2018-Jun-22 05:26N 52°16' E 003°03'817.1
2018-Jun-22 05:00N 52°22' E 003°11'917.3
2018-Jun-22 04:30N 52°29' E 003°20'917.4
2018-Jun-22 04:00N 52°36' E 003°28'917.0
2018-Jun-22 03:28N 52°43' E 003°38'816.6
2018-Jun-22 03:00N 52°49' E 003°46'816.2
2018-Jun-22 02:30N 52°55' E 003°55'714.9
2018-Jun-22 02:00N 52°59' E 004°05'714.7
2018-Jun-22 01:30N 53°04' E 004°14'714.1
2018-Jun-22 01:00N 53°08' E 004°23'815.0
2018-Jun-22 00:30N 53°15' E 004°29'815.2
2018-Jun-22 00:00N 53°22' E 004°34'714.1
2018-Jun-21 23:30N 53°28' E 004°38'3 6.3
2018-Jun-21 23:00N 53°30' E 004°43'2 4.7
2018-Jun-21 22:30N 53°30' E 004°46'2 5.0
2018-Jun-21 22:00N 53°31' E 004°51'3 5.2
2018-Jun-21 21:30N 53°32' E 004°54'3 6.3
2018-Jun-21 21:00N 53°34' E 004°59'3 6.6
2018-Jun-21 20:30N 53°34' E 005°04'3 6.9
2018-Jun-21 20:00N 53°35' E 005°10'4 7.0
2018-Jun-21 19:30N 53°37' E 005°15'4 7.3
2018-Jun-21 19:00N 53°38' E 005°21'4 7.2
2018-Jun-21 18:30N 53°39' E 005°27'4 7.0
2018-Jun-21 18:00N 53°40' E 005°33'4 7.0
2018-Jun-21 17:30N 53°41' E 005°38'4 7.1
2018-Jun-21 17:00N 53°42' E 005°44'4 7.2
2018-Jun-21 16:30N 53°44' E 005°50'4 7.3
2018-Jun-21 16:00N 53°45' E 005°55'4 7.0
2018-Jun-21 15:30N 53°46' E 006°01'3 6.9
2018-Jun-21 15:00N 53°47' E 006°07'3 6.6
2018-Jun-21 14:30N 53°48' E 006°12'47 7.5
2018-Jun-21 08:14N 54°00' E 007°29'2 9.2
2018-Jun-21 07:58N 54°01' E 007°34'5 9.5
2018-Jun-21 07:29N 54°01' E 007°41'5 9.8
2018-Jun-21 07:00N 54°02' E 007°49'5 9.4
2018-Jun-21 06:30N 54°02' E 007°57'5 9.5
2018-Jun-21 06:00N 54°01' E 008°05'3 6.9
2018-Jun-21 05:30N 54°02' E 008°11'0 0.1
2018-Jun-21 04:57N 54°02' E 008°11'0 0.0
2018-Jun-21 04:27N 54°02' E 008°11'0 0.0
2018-Jun-21 04:00N 54°02' E 008°11'0 0.0
2018-Jun-21 03:30N 54°02' E 008°11'0 0.0
2018-Jun-21 03:00N 54°02' E 008°11'0 0.0
2018-Jun-21 02:30N 54°02' E 008°11'0 0.0
2018-Jun-21 02:00N 54°02' E 008°11'0 0.0
2018-Jun-21 01:30N 54°02' E 008°11'0 0.0
2018-Jun-20 23:54N 54°02' E 008°11'0 0.0
2018-Jun-20 23:24N 54°02' E 008°11'0 0.0
2018-Jun-20 22:57N 54°02' E 008°11'0 0.1
2018-Jun-20 22:30N 54°02' E 008°11'0 0.1
2018-Jun-20 22:00N 54°02' E 008°11'0 0.1
2018-Jun-20 21:30N 54°02' E 008°11'0 0.1
2018-Jun-20 21:00N 54°02' E 008°11'0 0.1
2018-Jun-20 20:30N 54°02' E 008°11'0 0.1
2018-Jun-20 20:00N 54°02' E 008°11'0 0.1
2018-Jun-20 19:30N 54°02' E 008°11'0 0.1
2018-Jun-20 18:54N 54°02' E 008°11'0 0.1
2018-Jun-20 18:30N 54°02' E 008°11'0 0.1
2018-Jun-20 17:54N 54°02' E 008°11'0 0.0
2018-Jun-20 17:30N 54°02' E 008°11'0 0.0
2018-Jun-20 16:57N 54°02' E 008°11'0 0.0
2018-Jun-20 16:30N 54°02' E 008°11'0 0.0
2018-Jun-20 16:00N 54°02' E 008°11'0 0.1
2018-Jun-20 15:27N 54°02' E 008°11'0 0.0
2018-Jun-20 15:00N 54°02' E 008°11'0 0.0
2018-Jun-20 14:24N 54°02' E 008°11'0 0.0
2018-Jun-20 14:00N 54°02' E 008°11'0 0.0
2018-Jun-20 13:30N 54°02' E 008°11'0 0.0
2018-Jun-20 12:57N 54°02' E 008°11'0 0.1
2018-Jun-20 12:27N 54°02' E 008°11'0 0.0
2018-Jun-20 12:00N 54°02' E 008°11'0 0.0
2018-Jun-20 11:30N 54°02' E 008°11'0 0.0
2018-Jun-20 11:00N 54°02' E 008°11'0 0.1
2018-Jun-20 10:27N 54°02' E 008°11'0 0.1
2018-Jun-20 10:00N 54°02' E 008°11'0 0.1
2018-Jun-20 09:30N 54°02' E 008°11'0 0.1
2018-Jun-20 09:00N 54°02' E 008°11'0 0.0
2018-Jun-20 08:24N 54°02' E 008°11'0 0.1
2018-Jun-20 08:00N 54°02' E 008°11'0 0.0
2018-Jun-20 07:30N 54°02' E 008°11'0 0.0
2018-Jun-20 06:57N 54°02' E 008°11'0 0.1
2018-Jun-20 06:30N 54°02' E 008°11'0 0.1
2018-Jun-20 06:00N 54°02' E 008°11'0 0.1
2018-Jun-20 05:30N 54°02' E 008°11'0 0.1
2018-Jun-20 05:00N 54°02' E 008°11'0 0.1
2018-Jun-20 04:30N 54°02' E 008°11'0 0.0
2018-Jun-20 04:00N 54°02' E 008°11'0 0.1
2018-Jun-20 03:27N 54°02' E 008°11'0 0.0
2018-Jun-20 03:00N 54°02' E 008°11'0 0.1
2018-Jun-20 02:30N 54°02' E 008°11'0 0.1
2018-Jun-20 02:00N 54°02' E 008°11'0 0.0
2018-Jun-20 01:30N 54°02' E 008°11'0 0.0
2018-Jun-20 01:00N 54°02' E 008°11'0 0.0
2018-Jun-20 00:30N 54°02' E 008°11'0 0.0
2018-Jun-20 00:00N 54°02' E 008°11'0 0.2
2018-Jun-19 23:30N 54°02' E 008°11'0 0.2
2018-Jun-19 23:00N 54°02' E 008°11'0 0.2
2018-Jun-19 22:30N 54°02' E 008°11'0 0.1
2018-Jun-19 22:00N 54°02' E 008°11'0 0.0
2018-Jun-19 21:30N 54°02' E 008°11'0 0.0
2018-Jun-19 21:00N 54°02' E 008°11'0 0.0
2018-Jun-19 20:30N 54°02' E 008°11'0 0.1
2018-Jun-19 20:00N 54°02' E 008°11'0 0.1
2018-Jun-19 19:30N 54°02' E 008°11'0 0.0
2018-Jun-19 19:00N 54°02' E 008°11'0 0.2
2018-Jun-19 17:48N 54°02' E 008°11'0 0.2
2018-Jun-19 17:24N 54°02' E 008°11'0 0.0
2018-Jun-19 16:51N 54°02' E 008°11'0 0.1
2018-Jun-19 16:30N 54°02' E 008°11'0 0.0
2018-Jun-19 15:57N 54°02' E 008°11'0 0.0
2018-Jun-19 15:27N 54°02' E 008°11'0 0.0
2018-Jun-19 14:57N 54°02' E 008°11'0 0.0
2018-Jun-19 14:27N 54°02' E 008°11'0 0.0
2018-Jun-19 14:00N 54°02' E 008°11'0 0.0
2018-Jun-19 13:27N 54°02' E 008°11'0 0.0
2018-Jun-19 13:00N 54°02' E 008°11'0 0.0
2018-Jun-19 12:24N 54°02' E 008°11'0 0.0
2018-Jun-19 11:57N 54°02' E 008°11'0 0.0
2018-Jun-19 11:30N 54°02' E 008°11'0 0.1
2018-Jun-19 11:00N 54°02' E 008°11'0 0.1
2018-Jun-19 10:24N 54°02' E 008°11'0 0.0
2018-Jun-19 09:54N 54°02' E 008°11'0 0.1
2018-Jun-19 09:30N 54°02' E 008°11'0 0.1
2018-Jun-19 09:00N 54°02' E 008°11'0 0.0
2018-Jun-19 08:30N 54°02' E 008°11'0 0.0
2018-Jun-19 08:00N 54°02' E 008°11'0 0.1
2018-Jun-19 07:30N 54°02' E 008°11'0 0.0
2018-Jun-19 07:00N 54°02' E 008°11'0 0.0
2018-Jun-19 06:30N 54°02' E 008°11'0 0.0
2018-Jun-19 06:00N 54°02' E 008°11'0 0.0
2018-Jun-19 05:30N 54°02' E 008°11'0 0.1
2018-Jun-19 05:00N 54°02' E 008°11'0 0.0
2018-Jun-19 04:30N 54°02' E 008°11'0 0.0
2018-Jun-19 04:00N 54°02' E 008°11'0 0.1
2018-Jun-19 03:30N 54°02' E 008°11'0 0.0
2018-Jun-19 03:00N 54°02' E 008°11'0 0.0
2018-Jun-19 02:27N 54°02' E 008°11'0 0.0
2018-Jun-19 02:00N 54°02' E 008°11'0 0.0
2018-Jun-19 01:30N 54°02' E 008°11'0 0.0
2018-Jun-19 01:00N 54°02' E 008°11'0 0.1
2018-Jun-19 00:24N 54°02' E 008°11'0 0.0
2018-Jun-19 00:00N 54°02' E 008°11'0 0.0
2018-Jun-18 23:30N 54°02' E 008°11'0 0.0
2018-Jun-18 23:00N 54°02' E 008°11'0 0.0
2018-Jun-18 22:30N 54°02' E 008°11'0 0.1
2018-Jun-18 22:00N 54°02' E 008°11'0 0.1
2018-Jun-18 21:30N 54°02' E 008°11'0 0.2
2018-Jun-18 21:00N 54°02' E 008°11'0 0.1
2018-Jun-18 20:30N 54°02' E 008°11'0 0.0
2018-Jun-18 20:00N 54°02' E 008°11'0 0.0
2018-Jun-18 19:30N 54°02' E 008°11'0 0.0
2018-Jun-18 18:54N 54°02' E 008°11'0 0.0
2018-Jun-18 18:30N 54°02' E 008°11'0 0.0
2018-Jun-18 18:00N 54°02' E 008°11'0 0.1
2018-Jun-18 17:30N 54°02' E 008°11'0 0.1
2018-Jun-18 17:00N 54°02' E 008°11'0 0.1
2018-Jun-18 16:30N 54°02' E 008°11'0 0.1
2018-Jun-18 16:00N 54°02' E 008°11'0 0.1
2018-Jun-18 15:15N 54°02' E 008°11'0 0.0
2018-Jun-18 14:57N 54°02' E 008°11'0 0.0
2018-Jun-18 14:30N 54°02' E 008°11'0 0.0
2018-Jun-18 14:00N 54°02' E 008°11'0 0.0
2018-Jun-18 13:30N 54°02' E 008°11'0 0.0
2018-Jun-18 12:42N 54°02' E 008°11'0 0.0
2018-Jun-18 12:30N 54°02' E 008°11'0 0.0
2018-Jun-18 12:00N 54°02' E 008°11'0 0.0
2018-Jun-18 11:24N 54°02' E 008°11'0 0.0
2018-Jun-18 11:00N 54°02' E 008°11'0 0.0
2018-Jun-18 10:30N 54°02' E 008°11'0 0.0
2018-Jun-18 10:00N 54°02' E 008°11'0 0.0
2018-Jun-18 09:30N 54°02' E 008°11'0 0.0
2018-Jun-18 09:00N 54°02' E 008°11'0 0.1
2018-Jun-18 08:30N 54°02' E 008°11'0 0.1
2018-Jun-18 08:00N 54°02' E 008°11'0 0.0
2018-Jun-18 07:27N 54°02' E 008°11'0 0.1
2018-Jun-18 07:00N 54°02' E 008°11'0 0.0
2018-Jun-18 06:18N 54°02' E 008°11'0 0.0
2018-Jun-18 06:00N 54°02' E 008°11'0 0.0
2018-Jun-18 05:30N 54°02' E 008°11'0 0.0
2018-Jun-18 05:00N 54°02' E 008°11'0 0.1
2018-Jun-18 04:30N 54°02' E 008°11'0 0.1
2018-Jun-18 04:00N 54°02' E 008°11'0 0.1
2018-Jun-18 03:30N 54°02' E 008°11'0 0.1
2018-Jun-18 03:00N 54°02' E 008°11'0 0.1
2018-Jun-18 02:30N 54°02' E 008°11'0 0.0
2018-Jun-18 01:57N 54°02' E 008°11'0 0.0
2018-Jun-18 01:24N 54°02' E 008°11'0 0.0
2018-Jun-18 01:00N 54°02' E 008°11'0 0.1
2018-Jun-18 00:30N 54°02' E 008°11'0 0.0
2018-Jun-18 00:00N 54°02' E 008°11'0 0.0
2018-Jun-17 23:30N 54°02' E 008°11'0 0.0
2018-Jun-17 23:00N 54°02' E 008°11'0 0.0
2018-Jun-17 22:24N 54°02' E 008°11'0 0.0
2018-Jun-17 22:00N 54°02' E 008°11'0 0.1
2018-Jun-17 21:30N 54°02' E 008°11'0 0.2
2018-Jun-17 21:00N 54°02' E 008°11'0 0.2
2018-Jun-17 20:30N 54°02' E 008°11'0 0.1
2018-Jun-17 20:00N 54°02' E 008°11'0 0.0
2018-Jun-17 19:30N 54°02' E 008°11'0 0.0
2018-Jun-17 19:00N 54°02' E 008°11'0 0.0
2018-Jun-17 18:30N 54°02' E 008°11'0 0.0
2018-Jun-17 18:00N 54°02' E 008°11'0 0.0
2018-Jun-17 17:27N 54°02' E 008°11'0 0.3
2018-Jun-17 17:00N 54°02' E 008°11'3 6.1
2018-Jun-17 16:30N 54°00' E 008°15'1020.0
2018-Jun-17 16:00N 53°58' E 008°32'816.2
2018-Jun-17 15:31N 53°53' E 008°42'612.4
2018-Jun-17 15:01N 53°50' E 008°52'510.5
2018-Jun-17 14:31N 53°51' E 009°00'612.3
2018-Jun-17 14:00N 53°53' E 009°11'4 8.9
2018-Jun-17 13:30N 53°52' E 009°18'612.1
2018-Jun-17 13:00N 53°47' E 009°24'510.3
2018-Jun-17 12:30N 53°43' E 009°29'611.5
2018-Jun-17 12:01N 53°37' E 009°33'612.6
2018-Jun-17 11:30N 53°34' E 009°42'510.3
2018-Jun-17 11:00N 53°33' E 009°50'3 6.7
2018-Jun-17 10:31N 53°32' E 009°55'0 0.2
2018-Jun-17 09:59N 53°32' E 009°55'0 0.0
2018-Jun-17 09:29N 53°32' E 009°56'0 0.0
2018-Jun-17 08:59N 53°32' E 009°56'0 0.0
2018-Jun-17 08:29N 53°32' E 009°56'0 0.0
2018-Jun-17 07:59N 53°32' E 009°56'0 0.0
2018-Jun-17 07:29N 53°32' E 009°56'0 0.0
2018-Jun-17 06:59N 53°32' E 009°56'0 0.0
2018-Jun-17 06:29N 53°32' E 009°56'0 0.0
2018-Jun-17 05:59N 53°32' E 009°56'0 0.0
2018-Jun-17 05:29N 53°32' E 009°56'0 0.0
2018-Jun-17 04:59N 53°32' E 009°56'0 0.0
2018-Jun-17 04:29N 53°32' E 009°56'0 0.0
2018-Jun-17 03:59N 53°32' E 009°56'0 0.0
2018-Jun-17 03:29N 53°32' E 009°56'0 0.0
2018-Jun-17 02:59N 53°32' E 009°56'0 0.0
2018-Jun-17 02:29N 53°32' E 009°56'0 0.0
2018-Jun-17 01:59N 53°32' E 009°56'0 0.0
2018-Jun-17 01:29N 53°32' E 009°56'0 0.0
2018-Jun-17 00:59N 53°32' E 009°56'0 0.0
2018-Jun-17 00:29N 53°32' E 009°56'0 0.0
2018-Jun-16 23:59N 53°32' E 009°56'0 0.0
2018-Jun-16 23:29N 53°32' E 009°56'0 0.0
2018-Jun-16 22:59N 53°32' E 009°56'0 0.0
2018-Jun-16 22:29N 53°32' E 009°56'0 0.0
2018-Jun-16 21:59N 53°32' E 009°56'0 0.0
2018-Jun-16 21:29N 53°32' E 009°56'0 0.0
2018-Jun-16 20:59N 53°32' E 009°56'0 0.0
2018-Jun-16 20:29N 53°32' E 009°56'0 0.0
2018-Jun-16 19:59N 53°32' E 009°56'0 0.0
2018-Jun-16 19:29N 53°32' E 009°56'0 0.0
2018-Jun-16 18:59N 53°32' E 009°56'0 0.0
2018-Jun-16 18:29N 53°32' E 009°56'0 0.0
2018-Jun-16 17:59N 53°32' E 009°56'0 0.0
2018-Jun-16 17:29N 53°32' E 009°56'0 0.0
2018-Jun-16 16:59N 53°32' E 009°56'0 0.0
2018-Jun-16 16:29N 53°32' E 009°56'0 0.6
2018-Jun-16 16:00N 53°32' E 009°55'1 3.0
2018-Jun-16 15:30N 53°33' E 009°53'4 8.7
2018-Jun-16 15:00N 53°34' E 009°46'510.4
2018-Jun-16 14:30N 53°35' E 009°37'611.3
2018-Jun-16 14:00N 53°39' E 009°31'611.9
2018-Jun-16 13:30N 53°44' E 009°26'611.9
2018-Jun-16 13:00N 53°50' E 009°21'612.2
2018-Jun-16 12:30N 53°53' E 009°13'611.3
2018-Jun-16 12:00N 53°52' E 009°03'612.9
2018-Jun-16 11:30N 53°50' E 008°53'611.9
2018-Jun-16 11:00N 53°52' E 008°43'612.6
2018-Jun-16 10:30N 53°57' E 008°37'713.5
2018-Jun-16 10:00N 53°59' E 008°25'816.0
2018-Jun-16 09:30N 53°60' E 008°12'510.9
2018-Jun-16 09:00N 53°59' E 008°03'510.0
2018-Jun-16 08:30N 53°58' E 007°54'510.4
2018-Jun-16 08:00N 53°57' E 007°46'714.2
2018-Jun-16 07:30N 53°55' E 007°34'814.8
2018-Jun-16 06:59N 53°53' E 007°22'814.6
2018-Jun-16 06:27N 53°51' E 007°09'5812.7
2018-Jun-16 01:56N 53°37' E 005°34'512.3
2018-Jun-16 01:30N 53°35' E 005°26'611.8
2018-Jun-16 01:00N 53°33' E 005°17'612.0
2018-Jun-16 00:30N 53°31' E 005°07'612.2
2018-Jun-16 00:00N 53°29' E 004°58'612.4
2018-Jun-15 23:30N 53°26' E 004°48'611.9
2018-Jun-15 23:00N 53°22' E 004°41'612.4
2018-Jun-15 22:30N 53°17' E 004°36'612.6
2018-Jun-15 22:00N 53°11' E 004°31'612.2
2018-Jun-15 21:30N 53°06' E 004°26'612.2
2018-Jun-15 21:00N 53°00' E 004°22'612.1
2018-Jun-15 20:30N 52°55' E 004°18'611.7
2018-Jun-15 20:00N 52°49' E 004°14'612.0
2018-Jun-15 19:30N 52°44' E 004°08'612.3
2018-Jun-15 19:00N 52°39' E 004°02'612.5
2018-Jun-15 18:30N 52°34' E 003°57'612.4
2018-Jun-15 18:00N 52°28' E 003°54'713.7
2018-Jun-15 17:30N 52°21' E 003°52'713.3
2018-Jun-15 17:00N 52°15' E 003°53'713.3
2018-Jun-15 16:30N 52°08' E 003°55'612.3
2018-Jun-15 16:00N 52°02' E 003°55'4 8.1
2018-Jun-15 15:30N 52°00' E 004°00'4 8.2
2018-Jun-15 15:01N 51°57' E 004°04'0 0.7
2018-Jun-15 14:29N 51°57' E 004°04'0 0.0
2018-Jun-15 13:59N 51°57' E 004°04'0 0.0
2018-Jun-15 13:29N 51°57' E 004°04'0 0.0
2018-Jun-15 12:59N 51°57' E 004°04'0 0.0
2018-Jun-15 12:29N 51°57' E 004°04'0 0.0
2018-Jun-15 11:59N 51°57' E 004°04'0 0.0
2018-Jun-15 11:29N 51°57' E 004°04'0 0.0
2018-Jun-15 10:59N 51°57' E 004°04'0 0.0
2018-Jun-15 10:29N 51°57' E 004°04'0 0.0
2018-Jun-15 09:59N 51°57' E 004°04'0 0.0
2018-Jun-15 09:29N 51°57' E 004°04'0 0.0
2018-Jun-15 08:59N 51°57' E 004°04'0 0.0
2018-Jun-15 08:29N 51°57' E 004°04'0 0.0
2018-Jun-15 07:59N 51°57' E 004°04'0 0.0
2018-Jun-15 07:29N 51°57' E 004°04'0 0.0
2018-Jun-15 06:59N 51°57' E 004°04'0 0.0
2018-Jun-15 06:29N 51°57' E 004°04'0 0.0
2018-Jun-15 05:59N 51°57' E 004°04'0 0.0
2018-Jun-15 05:29N 51°57' E 004°04'0 0.0
2018-Jun-15 04:59N 51°57' E 004°04'0 0.0
2018-Jun-15 04:29N 51°57' E 004°04'0 0.0
2018-Jun-15 03:59N 51°57' E 004°04'0 0.0
2018-Jun-15 03:29N 51°57' E 004°04'0 0.0
2018-Jun-15 02:59N 51°57' E 004°04'0 0.0
2018-Jun-15 02:29N 51°57' E 004°04'0 0.0
2018-Jun-15 01:59N 51°57' E 004°04'0 0.0
2018-Jun-15 01:29N 51°57' E 004°04'0 0.0
2018-Jun-15 00:59N 51°57' E 004°04'0 0.0
2018-Jun-15 00:29N 51°57' E 004°04'0 0.0
2018-Jun-14 23:59N 51°57' E 004°04'0 0.0
2018-Jun-14 23:29N 51°57' E 004°04'0 0.0
2018-Jun-14 22:59N 51°57' E 004°04'0 0.0
2018-Jun-14 22:29N 51°57' E 004°04'0 0.0
2018-Jun-14 21:59N 51°57' E 004°04'0 0.0
2018-Jun-14 21:29N 51°57' E 004°04'0 0.0
2018-Jun-14 20:59N 51°57' E 004°04'0 0.0
2018-Jun-14 20:29N 51°57' E 004°04'0 0.0
2018-Jun-14 19:59N 51°57' E 004°04'0 0.0
2018-Jun-14 19:29N 51°57' E 004°04'0 0.0
2018-Jun-14 18:59N 51°57' E 004°04'0 0.0
2018-Jun-14 18:29N 51°57' E 004°04'0 0.0
2018-Jun-14 17:59N 51°57' E 004°04'0 0.0
2018-Jun-14 17:29N 51°57' E 004°04'0 0.0
2018-Jun-14 16:59N 51°57' E 004°04'0 0.0
2018-Jun-14 16:29N 51°57' E 004°04'0 0.0
2018-Jun-14 15:59N 51°57' E 004°04'0 0.0
2018-Jun-14 15:29N 51°57' E 004°04'0 0.0
2018-Jun-14 14:59N 51°57' E 004°04'0 0.0
2018-Jun-14 14:29N 51°57' E 004°04'0 1.0
2018-Jun-14 14:01N 51°57' E 004°05'1 2.8
2018-Jun-14 13:31N 51°58' E 004°05'5 9.7
2018-Jun-14 13:00N 52°00' E 003°58'510.9
2018-Jun-14 12:30N 52°00' E 003°49'4 8.7
2018-Jun-14 12:01N 51°58' E 003°43'3 5.2
2018-Jun-14 11:31N 51°58' E 003°39'2 3.8
2018-Jun-14 11:00N 51°58' E 003°36'3 5.9
2018-Jun-14 10:30N 51°57' E 003°31'3 5.6
2018-Jun-14 10:00N 51°56' E 003°27'3 5.9
2018-Jun-14 09:31N 51°55' E 003°22'4 8.1
2018-Jun-14 09:00N 51°54' E 003°16'5 9.7
2018-Jun-14 08:30N 51°53' E 003°08'713.5
2018-Jun-14 08:00N 51°51' E 002°58'713.8
2018-Jun-14 07:30N 51°48' E 002°47'  

Dump ship's entire track history